Latest Weather Observations for PORTABLE NPWS NSW02

IDN60801

Issued at 10:52 am EST Monday 16 September 2019 (issued every 10 minutes, with the page automatically refreshed every 10 minutes)

About weather observations | Map of weather stations | Latest weather observations for NSW | Other Formats
Station Details ID: 250099 Name: PORTABLE NPWS NSW02 Lat: -33.10 Lon: 150.07 Height: 983.0 m
Data from the previous 72 hours. | See also: Recent months for locations in New South Wales
Date/Time
EST
Temp
°C
App
Temp
°C
Dew
Point
°C
Rel
Hum
%
Delta-T
°C
Wind Press
QNH
hPa
Press
MSL
hPa
Rain since
9am
mm
Dir  Spd
km/h
Gust
km/h
Spd
kts
Gust
kts
16/10:40am 22.0 14.4 -15.4 7 13.2 NW 22 35 12 19 - - 0.0
16/10:30am 20.6 13.6 -15.4 8 12.5 NW 19 28 10 15 - - 0.0
16/10:20am 19.3 11.8 -14.6 9 11.7 NNW 22 28 12 15 - - 0.0
16/10:10am 19.4 12.5 -14.4 9 11.8 NNW 19 32 10 17 - - 0.0
16/10:00am 19.8 11.9 -14.6 8 12.0 NNW 24 32 13 17 - - 0.0
16/09:50am 19.7 11.4 -14.7 8 11.9 NNW 26 32 14 17 - - 0.0
16/09:40am 19.6 11.7 -14.6 9 11.9 NNW 24 28 13 15 - - 0.0
16/09:30am 19.4 11.9 -14.7 9 11.8 NNW 22 26 12 14 - - 0.0
16/09:20am 18.9 12.3 -15.0 9 11.6 NNW 17 20 9 11 - - 0.0
16/09:10am 18.1 11.9 -14.9 9 11.2 NW 15 19 8 10 - - 0.0
16/09:00am 17.6 11.4 -15.1 9 11.0 NW 15 19 8 10 - - 0.0
16/08:50am 17.3 11.4 -15.6 9 10.9 NW 13 15 7 8 - - 0.0
16/08:40am 16.7 10.4 -16.1 9 10.6 NW 15 17 8 9 - - 0.0
16/08:30am 16.6 10.3 -16.1 9 10.6 NW 15 20 8 11 - - 0.0
16/08:20am 16.5 10.2 -16.3 9 10.6 WNW 15 20 8 11 - - 0.0
16/08:10am 16.5 9.8 -16.9 9 10.6 WNW 17 28 9 15 - - 0.0
16/08:00am 16.6 9.3 -17.0 8 10.7 NW 20 24 11 13 - - 0.0
16/07:50am 16.5 9.4 -17.0 9 10.6 WNW 19 26 10 14 - - 0.0
16/07:40am 16.2 8.9 -17.0 9 10.5 WNW 20 28 11 15 - - 0.0
16/07:30am 16.0 8.7 -17.3 9 10.4 WNW 20 28 11 15 - - 0.0
16/07:20am 15.9 9.2 -17.1 9 10.4 NW 17 22 9 12 - - 0.0
16/07:10am 15.9 9.2 -17.1 9 10.4 WNW 17 24 9 13 - - 0.0
16/07:00am 16.0 9.7 -17.3 9 10.4 NW 15 20 8 11 - - 0.0
16/06:50am 15.9 8.8 -17.2 9 10.4 WNW 19 24 10 13 - - 0.0
16/06:40am 15.7 8.0 -17.7 8 10.3 WNW 22 26 12 14 - - 0.0
16/06:30am 15.6 8.3 -17.3 9 10.3 WNW 20 28 11 15 - - 0.0
16/06:20am 15.4 8.7 -17.5 9 10.2 WNW 17 22 9 12 - - 0.0
16/06:10am 15.2 8.1 -17.5 9 10.1 WNW 19 24 10 13 - - 0.0
16/06:00am 15.1 8.4 -17.4 9 10.0 WNW 17 26 9 14 - - 0.0
16/05:50am 15.1 8.4 -17.5 9 10.1 WNW 17 22 9 12 - - 0.0
16/05:40am 15.2 8.1 -17.7 9 10.1 NW 19 26 10 14 - - 0.0
16/05:30am 15.2 7.5 -17.9 9 10.1 NW 22 24 12 13 - - 0.0
16/05:20am 15.2 7.9 -17.8 9 10.1 NW 20 30 11 16 - - 0.0
16/05:10am 15.3 8.6 -17.8 9 10.2 WNW 17 22 9 12 - - 0.0
16/05:00am 15.4 8.1 -17.9 8 10.2 WNW 20 28 11 15 - - 0.0
16/04:50am 15.4 8.7 -18.0 8 10.2 WNW 17 26 9 14 - - 0.0
16/04:40am 15.4 8.6 -18.3 8 10.3 WNW 17 22 9 12 - - 0.0
16/04:30am 15.2 9.6 -18.0 9 10.1 WNW 11 15 6 8 - - 0.0
16/04:20am 15.3 9.3 -18.4 8 10.2 WNW 13 20 7 11 - - 0.0
16/04:10am 15.2 9.2 -18.5 8 10.2 WNW 13 17 7 9 - - 0.0
16/04:00am 15.1 9.9 -18.3 8 10.1 WNW 9 15 5 8 - - 0.0
16/03:50am 15.3 10.5 -18.0 8 10.2 NW 7 9 4 5 - - 0.0
16/03:40am 15.6 10.4 -18.1 8 10.3 WNW 9 13 5 7 - - 0.0
16/03:30am 15.8 9.8 -18.4 8 10.5 WNW 13 19 7 10 - - 0.0
16/03:20am 15.8 10.2 -18.8 8 10.5 WNW 11 17 6 9 - - 0.0
16/03:10am 15.6 10.0 -18.7 8 10.4 WNW 11 15 6 8 - - 0.0
16/03:00am 15.7 9.7 -18.3 8 10.4 WNW 13 19 7 10 - - 0.0
16/02:50am 15.8 9.4 -18.3 8 10.5 WNW 15 19 8 10 - - 0.0
16/02:40am 16.1 9.7 -18.6 8 10.6 WNW 15 19 8 10 - - 0.0
16/02:30am 16.2 9.4 -18.6 8 10.7 WNW 17 22 9 12 - - 0.0
16/02:20am 16.4 9.6 -18.6 7 10.8 WNW 17 22 9 12 - - 0.0
16/02:10am 16.6 10.2 -18.7 7 10.9 WNW 15 20 8 11 - - 0.0
16/02:00am 16.6 10.2 -19.2 7 10.9 WNW 15 20 8 11 - - 0.0
16/01:50am 16.7 9.9 -19.3 7 11.0 WNW 17 22 9 12 - - 0.0
16/01:40am 16.7 9.9 -19.0 7 10.9 WNW 17 24 9 13 - - 0.0
16/01:30am 16.7 10.3 -18.7 7 10.9 WNW 15 22 8 12 - - 0.0
16/01:20am 16.8 10.8 -18.9 7 11.0 WNW 13 20 7 11 - - 0.0
16/01:10am 16.8 10.4 -18.7 7 11.0 WNW 15 20 8 11 - - 0.0
16/01:00am 16.9 9.7 -18.9 7 11.0 WNW 19 24 10 13 - - 0.0
16/12:50am 16.8 9.6 -18.8 7 11.0 WNW 19 22 10 12 - - 0.0
16/12:40am 16.6 10.3 -17.6 8 10.8 WNW 15 22 8 12 - - 0.0
16/12:30am 16.3 10.4 -17.0 9 10.6 WNW 13 17 7 9 - - 0.0
16/12:20am 16.5 10.6 -16.7 9 10.6 WNW 13 19 7 10 - - 0.0
16/12:10am 16.8 10.9 -16.4 9 10.7 WNW 13 17 7 9 - - 0.0
16/12:00am 16.9 11.0 -16.0 9 10.7 WNW 13 17 7 9 - - 0.0
 
Date/Time
EST
Temp
°C
App
Temp
°C
Dew
Point
°C
Rel
Hum
%
Delta-T
°C
Wind Press
QNH
hPa
Press
MSL
hPa
Rain since
9am
mm
Dir  Spd
km/h
Gust
km/h
Spd
kts
Gust
kts
15/11:50pm 17.1 10.5 -15.7 9 10.8 NW 17 20 9 11 - - 0.0
15/11:40pm 17.1 10.4 -16.1 9 10.8 WNW 17 22 9 12 - - 0.0
15/11:30pm 17.1 10.5 -16.0 9 10.8 WNW 17 22 9 12 - - 0.0
15/11:20pm 17.0 10.4 -15.4 9 10.7 WNW 17 20 9 11 - - 0.0
15/11:10pm 16.8 10.9 -15.4 10 10.6 WNW 13 17 7 9 - - 0.0
15/11:00pm 16.9 10.3 -15.3 10 10.7 W 17 24 9 13 - - 0.0
15/10:50pm 16.9 10.3 -14.4 10 10.6 W 17 20 9 11 - - 0.0
15/10:40pm 16.8 10.7 -13.5 11 10.4 WNW 15 20 8 11 - - 0.0
15/10:30pm 16.9 10.8 -12.8 12 10.3 W 15 17 8 9 - - 0.0
15/10:20pm 16.8 10.7 -13.1 12 10.3 W 15 20 8 11 - - 0.0
15/10:10pm 16.8 10.3 -12.6 12 10.3 W 17 19 9 10 - - 0.0
15/10:00pm 16.9 10.4 -12.7 12 10.3 W 17 20 9 11 - - 0.0
15/09:50pm 16.9 10.5 -11.9 13 10.2 W 17 19 9 10 - - 0.0
15/09:40pm 16.9 10.9 -11.3 13 10.1 W 15 17 8 9 - - 0.0
15/09:30pm 16.9 11.3 -10.5 14 10.0 WSW 13 17 7 9 - - 0.0
15/09:20pm 17.1 11.9 -10.4 14 10.1 WSW 11 19 6 10 - - 0.0
15/09:10pm 17.3 10.9 -11.1 13 10.3 WSW 17 19 9 10 - - 0.0
15/09:00pm 17.5 11.1 -11.1 13 10.4 WSW 17 19 9 10 - - 0.0
15/08:50pm 17.7 11.3 -12.0 12 10.6 W 17 22 9 12 - - 0.0
15/08:40pm 17.9 11.1 -12.3 11 10.8 W 19 22 10 12 - - 0.0
15/08:30pm 18.1 11.1 -12.5 11 10.9 W 20 22 11 12 - - 0.0
15/08:20pm 18.2 10.8 -12.3 11 10.9 W 22 26 12 14 - - 0.0
15/08:10pm 18.2 10.8 -12.3 11 10.9 W 22 26 12 14 - - 0.0
15/08:00pm 18.2 10.4 -12.0 12 10.9 W 24 28 13 15 - - 0.0
15/07:50pm 18.3 10.2 -11.0 12 10.8 WSW 26 28 14 15 - - 0.0
15/07:40pm 18.2 9.8 -10.8 13 10.7 WSW 28 30 15 16 - - 0.0
15/07:30pm 18.2 9.8 -10.1 13 10.6 WSW 28 30 15 16 - - 0.0
15/07:20pm 18.3 10.3 -10.3 13 10.7 WSW 26 30 14 16 - - 0.0
15/07:10pm 18.3 10.7 -9.9 14 10.6 WSW 24 26 13 14 - - 0.0
15/07:00pm 18.6 10.6 -9.8 13 10.7 WSW 26 28 14 15 - - 0.0
15/06:50pm 18.7 10.7 -9.9 13 10.8 WSW 26 28 14 15 - - 0.0
15/06:40pm 18.7 11.5 -9.7 13 10.8 WSW 22 24 12 13 - - 0.0
15/06:30pm 19.0 11.8 -9.7 13 10.9 WSW 22 24 12 13 - - 0.0
15/06:20pm 19.2 12.4 -9.1 14 10.9 WSW 20 22 11 12 - - 0.0
15/06:10pm 19.4 13.6 -9.0 14 11.0 WSW 15 20 8 11 - - 0.0
15/06:00pm 19.9 14.5 -9.0 13 11.3 W 13 19 7 10 - - 0.0
15/05:50pm 20.3 14.9 -8.8 13 11.4 W 13 17 7 9 - - 0.0
15/05:40pm 20.6 15.9 -8.8 13 11.6 W 9 15 5 8 - - 0.0
15/05:30pm 20.9 15.8 -8.8 13 11.7 W 11 17 6 9 - - 0.0
15/05:20pm 21.2 16.9 -8.7 12 11.9 NW 7 13 4 7 - - 0.0
15/05:10pm 21.4 16.4 -8.6 12 12.0 W 11 17 6 9 - - 0.0
15/05:00pm 21.7 16.3 -8.3 12 12.1 NW 13 20 7 11 - - 0.0
15/04:50pm 22.5 17.6 -7.6 13 12.4 WSW 11 15 6 8 - - 0.0
15/04:40pm 22.9 18.0 -7.6 12 12.6 WSW 11 15 6 8 - - 0.0
15/04:30pm 23.2 18.3 -7.6 12 12.7 WSW 11 13 6 7 - - 0.0
15/04:20pm 23.6 18.6 -7.7 12 13.0 W 11 15 6 8 - - 0.0
15/04:10pm 23.5 18.2 -7.2 12 12.8 WSW 13 17 7 9 - - 0.0
15/04:00pm 23.3 18.4 -7.1 12 12.7 W 11 17 6 9 - - 0.0
15/03:50pm 23.3 17.7 -6.8 13 12.7 WNW 15 24 8 13 - - 0.0
15/03:40pm 23.7 18.1 -6.2 13 12.8 W 15 20 8 11 - - 0.0
15/03:30pm 23.8 17.9 -5.7 13 12.7 W 17 24 9 13 - - 0.0
15/03:20pm 24.3 19.1 -5.9 13 13.0 W 13 17 7 9 - - 0.0
15/03:10pm 24.3 18.7 -5.9 13 13.0 WSW 15 22 8 12 - - 0.0
15/03:00pm 24.4 19.6 -5.6 13 13.0 W 11 19 6 10 - - 0.0
15/02:50pm 24.1 18.7 -4.5 14 12.6 SW 15 19 8 10 - - 0.0
15/02:40pm 24.1 18.4 -4.0 15 12.5 WSW 17 20 9 11 - - 0.0
15/02:30pm 24.5 19.9 -3.8 15 12.7 SW 11 20 6 11 - - 0.0
15/02:20pm 24.0 19.4 -4.5 14 12.6 W 11 15 6 8 - - 0.0
15/02:10pm 24.2 19.4 -5.8 13 13.0 WNW 11 19 6 10 - - 0.0
15/02:00pm 23.6 18.0 -6.7 13 12.8 NW 15 22 8 12 - - 0.0
15/01:50pm 23.4 17.4 -6.7 13 12.7 NNW 17 26 9 14 - - 0.0
15/01:40pm 23.7 18.8 -7.4 12 13.0 NW 11 24 6 13 - - 0.0
15/01:30pm 23.2 17.5 -8.0 12 12.8 NNW 15 28 8 15 - - 0.0
15/01:20pm 23.6 18.2 -8.5 11 13.1 WNW 13 24 7 13 - - 0.0
15/01:10pm 24.0 18.9 -8.8 10 13.4 NW 11 17 6 9 - - 0.0
15/01:00pm 23.6 18.5 -9.0 10 13.2 NNW 11 17 6 9 - - 0.0
15/12:50pm 23.4 18.3 -8.8 11 13.0 N 11 15 6 8 - - 0.0
15/12:40pm 23.0 18.3 -8.6 11 12.8 N 9 13 5 7 - - 0.0
15/12:30pm 23.0 18.4 -8.3 11 12.8 N 9 15 5 8 - - 0.0
15/12:20pm 22.7 18.0 -8.9 11 12.7 N 9 13 5 7 - - 0.0
15/12:00pm 22.8 18.8 -7.3 13 12.5 N 6 9 3 5 - - 0.0
15/11:50am 22.3 18.2 -8.6 12 12.4 N 6 7 3 4 - - 0.0
15/11:40am 21.7 17.6 -6.9 14 11.8 N 7 13 4 7 - - 0.0
15/11:30am 21.7 17.5 -7.2 14 11.9 NNW 7 9 4 5 - - 0.0
15/11:20am 21.1 16.5 -7.5 14 11.6 NNW 9 11 5 6 - - 0.0
15/11:10am 20.3 16.2 -6.4 16 11.0 N 7 9 4 5 - - 0.0
15/11:00am 20.0 15.6 -5.7 17 10.7 N 9 13 5 7 - - 0.0
15/10:50am 20.2 16.2 -5.9 16 10.8 NNW 7 11 4 6 - - 0.0
15/10:40am 20.7 17.2 -5.8 16 11.1 NNW 4 7 2 4 - - 0.0
15/10:30am 20.4 16.6 -5.9 16 10.9 NW 6 9 3 5 - - 0.0
15/10:20am 20.5 17.0 -6.6 15 11.1 WNW 4 6 2 3 - - 0.0
15/10:10am 20.1 15.9 -9.8 12 11.5 WSW 6 7 3 4 - - 0.0
15/10:00am 19.9 15.7 -10.2 12 11.4 SW 6 9 3 5 - - 0.0
15/09:50am 19.7 15.6 -9.2 13 11.2 SW 6 9 3 5 - - 0.0
15/09:40am 19.6 15.3 -11.5 11 11.5 SW 6 11 3 6 - - 0.0
15/09:30am 19.0 14.5 -11.3 12 11.2 SW 7 11 4 6 - - 0.0
15/09:20am 18.8 14.3 -11.9 11 11.1 SW 7 9 4 5 - - 0.0
15/09:10am 18.3 14.1 -10.1 13 10.6 WSW 6 7 3 4 - - 0.0
15/09:00am 18.1 14.0 -9.2 15 10.4 SW 6 7 3 4 - - 0.0
15/08:50am 17.9 13.8 -9.2 15 10.3 SW 6 7 3 4 - - 0.0
15/08:40am 17.5 13.3 -10.0 14 10.2 SW 6 9 3 5 - - 0.0
15/08:30am 17.4 13.7 -8.4 16 9.9 SW 4 6 2 3 - - 0.0
15/08:20am 16.4 12.7 -8.8 17 9.5 SW 4 7 2 4 - - 0.0
15/08:10am 15.8 11.8 -7.1 20 8.9 WSW 6 7 3 4 - - 0.0
15/08:00am 15.9 12.3 -7.7 19 9.0 SW 4 4 2 2 - - 0.0
15/07:50am 15.4 11.8 -7.9 19 8.8 S 4 6 2 3 - - 0.0
15/07:40am 14.8 11.1 -8.5 19 8.7 S 4 7 2 4 - - 0.0
15/07:30am 14.0 9.9 -8.4 20 8.3 S 6 9 3 5 - - 0.0
15/07:20am 13.2 9.0 -8.3 21 7.9 S 7 9 4 5 - - 0.0
15/07:00am 11.7 7.1 -7.7 25 7.1 S 9 11 5 6 - - 0.0
15/06:50am 11.4 6.5 -7.5 26 6.9 S 11 13 6 7 - - 0.0
15/06:40am 11.1 6.1 -7.7 26 6.8 S 11 13 6 7 - - 0.0
15/06:30am 10.9 5.9 -7.9 26 6.8 S 11 13 6 7 - - 0.0
15/06:20am 10.8 5.9 -7.5 27 6.6 S 11 15 6 8 - - 0.0
15/06:10am 10.9 6.0 -7.3 27 6.6 S 11 13 6 7 - - 0.0
15/06:00am 10.9 6.0 -7.2 27 6.6 S 11 13 6 7 - - 0.0
15/05:50am 10.7 6.2 -7.3 27 6.5 S 9 13 5 7 - - 0.0
15/05:40am 10.8 6.3 -7.3 27 6.6 S 9 15 5 8 - - 0.0
15/05:30am 10.6 5.7 -7.4 27 6.5 S 11 15 6 8 - - 0.0
15/05:20am 10.5 5.6 -7.6 27 6.5 S 11 15 6 8 - - 0.0
15/05:10am 10.4 5.1 -7.7 27 6.5 SSE 13 17 7 9 - - 0.0
15/05:00am 10.4 5.1 -7.7 27 6.5 SSE 13 17 7 9 - - 0.0
15/04:50am 10.5 5.2 -7.7 27 6.5 SSE 13 15 7 8 - - 0.0
15/04:40am 10.4 4.3 -8.0 26 6.6 SSE 17 20 9 11 - - 0.0
15/04:30am 10.2 4.4 -8.4 26 6.6 S 15 17 8 9 - - 0.0
15/04:20am 9.9 4.1 -8.3 27 6.4 S 15 19 8 10 - - 0.0
15/04:10am 9.7 3.9 -8.2 27 6.3 S 15 19 8 10 - - 0.0
15/04:00am 9.6 3.8 -8.4 27 6.3 S 15 17 8 9 - - 0.0
15/03:50am 9.3 3.9 -8.3 28 6.1 SSW 13 15 7 8 - - 0.0
15/03:40am 9.1 4.2 -7.2 31 5.8 SSW 11 15 6 8 - - 0.0
15/03:30am 9.0 3.7 -7.6 30 5.9 SSW 13 13 7 7 - - 0.0
15/03:20am 8.9 4.0 -7.0 32 5.7 S 11 13 6 7 - - 0.0
15/03:10am 9.0 4.1 -7.0 31 5.7 SSW 11 15 6 8 - - 0.0
15/03:00am 9.2 3.9 -7.1 31 5.9 SSW 13 15 7 8 - - 0.0
15/02:50am 9.5 4.2 -7.1 30 6.0 SSW 13 17 7 9 - - 0.0
15/02:40am 9.6 4.2 -8.0 28 6.2 SSW 13 17 7 9 - - 0.0
15/02:30am 9.7 4.1 -6.8 30 6.0 SW 15 19 8 10 - - 0.0
15/02:20am 9.8 3.8 -6.8 30 6.0 SW 17 19 9 10 - - 0.0
15/02:10am 9.9 4.3 -6.8 30 6.1 SW 15 20 8 11 - - 0.0
15/02:00am 9.9 4.6 -6.8 30 6.1 SW 13 19 7 10 - - 0.0
15/01:50am 10.1 4.5 -6.7 30 6.2 SW 15 19 8 10 - - 0.0
15/01:40am 10.1 4.1 -6.9 29 6.2 WSW 17 20 9 11 - - 0.0
15/01:30am 10.0 4.7 -7.0 29 6.2 SW 13 19 7 10 - - 0.0
15/01:20am 10.2 4.9 -7.0 29 6.3 SW 13 19 7 10 - - 0.0
15/01:10am 10.3 4.6 -7.0 29 6.3 SW 15 17 8 9 - - 0.0
15/01:00am 10.5 4.8 -7.1 28 6.4 SW 15 19 8 10 - - 0.0
15/12:50am 10.5 4.8 -7.2 28 6.4 SW 15 17 8 9 - - 0.0
15/12:40am 10.6 4.9 -7.3 27 6.5 SW 15 20 8 11 - - 0.0
15/12:30am 10.6 4.9 -7.3 27 6.5 SW 15 17 8 9 - - 0.0
15/12:20am 10.5 5.6 -7.5 27 6.5 SW 11 13 6 7 - - 0.0
15/12:10am 10.6 5.3 -7.7 27 6.6 SW 13 15 7 8 - - 0.0
15/12:00am 10.6 6.0 -7.4 27 6.5 SW 9 13 5 7 - - 0.0
 
Date/Time
EST
Temp
°C
App
Temp
°C
Dew
Point
°C
Rel
Hum
%
Delta-T
°C
Wind Press
QNH
hPa
Press
MSL
hPa
Rain since
9am
mm
Dir  Spd
km/h
Gust
km/h
Spd
kts
Gust
kts
14/11:50pm 10.8 5.9 -7.5 27 6.6 SW 11 13 6 7 - - 0.0
14/11:40pm 11.0 5.3 -7.5 26 6.7 SW 15 17 8 9 - - 0.0
14/11:30pm 11.2 5.5 -7.5 26 6.8 SW 15 19 8 10 - - 0.0
14/11:20pm 11.5 5.4 -7.5 25 6.9 WSW 17 20 9 11 - - 0.0
14/11:00pm 11.7 5.2 -7.7 25 7.1 WSW 19 22 10 12 - - 0.0
14/10:50pm 11.9 5.4 -7.9 24 7.2 WSW 19 20 10 11 - - 0.0
14/10:40pm 12.0 5.5 -8.0 24 7.3 WSW 19 22 10 12 - - 0.0
14/10:30pm 12.1 6.0 -8.1 23 7.3 WSW 17 20 9 11 - - 0.0
14/10:20pm 12.2 5.7 -8.3 23 7.4 WSW 19 22 10 12 - - 0.0
14/10:10pm 12.3 6.2 -8.3 23 7.5 WSW 17 20 9 11 - - 0.0
14/10:00pm 12.4 6.6 -8.7 22 7.6 WSW 15 17 8 9 - - 0.0
14/09:50pm 12.6 7.2 -9.0 21 7.7 WSW 13 20 7 11 - - 0.0
14/09:40pm 12.7 7.2 -9.2 21 7.8 WSW 13 15 7 8 - - 0.0
14/09:30pm 12.9 7.4 -9.3 20 7.9 WSW 13 15 7 8 - - 0.0
14/09:20pm 13.0 7.5 -9.4 20 8.0 SW 13 15 7 8 - - 0.0
14/09:10pm 13.2 7.7 -9.3 20 8.1 WSW 13 15 7 8 - - 0.0
14/09:00pm 13.3 8.2 -9.6 19 8.2 WSW 11 15 6 8 - - 0.0
14/08:50pm 13.3 8.2 -9.9 19 8.2 WSW 11 15 6 8 - - 0.0
14/08:40pm 13.4 8.3 -9.0 20 8.1 SW 11 13 6 7 - - 0.0
14/08:30pm 13.6 8.6 -8.6 20 8.1 WSW 11 13 6 7 - - 0.0
14/08:20pm 13.7 8.3 -8.3 21 8.1 WSW 13 17 7 9 - - 0.0
14/08:10pm 13.6 8.7 -7.5 22 7.9 WSW 11 15 6 8 - - 0.0
14/08:00pm 13.8 8.9 -7.0 23 7.9 WSW 11 13 6 7 - - 0.0
14/07:50pm 13.9 9.0 -7.1 22 8.0 WSW 11 13 6 7 - - 0.0
14/07:40pm 14.1 8.8 -7.2 22 8.1 WSW 13 15 7 8 - - 0.0
14/07:30pm 14.1 8.8 -7.1 22 8.1 WSW 13 15 7 8 - - 0.0
14/07:20pm 14.2 8.9 -7.0 22 8.1 SW 13 15 7 8 - - 0.0
14/07:10pm 14.4 9.2 -6.6 23 8.1 WSW 13 15 7 8 - - 0.0
14/07:00pm 14.5 8.5 -6.7 22 8.2 WSW 17 19 9 10 - - 0.0
14/06:50pm 14.5 8.5 -6.6 22 8.1 WSW 17 17 9 9 - - 0.0
14/06:40pm 14.7 8.7 -6.4 22 8.2 WSW 17 20 9 11 - - 0.0
14/06:30pm 14.8 9.2 -6.3 23 8.2 WSW 15 17 8 9 - - 0.0
14/06:20pm 14.9 8.9 -6.6 22 8.3 WSW 17 19 9 10 - - 0.0
14/06:10pm 15.1 9.9 -6.6 22 8.4 WSW 13 19 7 10 - - 0.0
14/06:00pm 15.4 9.0 -6.7 21 8.6 WSW 19 20 10 11 - - 0.0
14/05:50pm 15.8 9.4 -6.7 20 8.8 WSW 19 22 10 12 - - 0.0
14/05:40pm 16.3 10.3 -6.4 20 9.0 WSW 17 22 9 12 - - 0.0
14/05:30pm 16.9 11.3 -6.6 19 9.3 WSW 15 19 8 10 - - 0.0
14/05:20pm 17.2 11.1 -7.2 18 9.6 WSW 17 20 9 11 - - 0.0
14/05:10pm 17.5 11.4 -7.5 17 9.8 WSW 17 20 9 11 - - 0.0
14/05:00pm 17.9 12.2 -7.6 17 10.0 W 15 22 8 12 - - 0.0
14/04:50pm 18.8 12.7 -7.6 16 10.5 WSW 17 20 9 11 - - 0.0
14/04:40pm 19.4 13.3 -7.9 15 10.8 WSW 17 22 9 12 - - 0.0
14/04:30pm 20.2 15.2 -7.9 14 11.2 WSW 11 20 6 11 - - 0.0
14/04:20pm 20.6 15.4 -10.1 12 11.8 SW 11 17 6 9 - - 0.0
14/04:10pm 20.6 14.3 -10.3 11 11.8 WSW 17 24 9 13 - - 0.0
14/04:00pm 20.9 14.6 -9.6 12 11.9 WSW 17 22 9 12 - - 0.0
14/03:50pm 21.6 16.9 -9.7 11 12.2 SW 9 11 5 6 - - 0.0
14/03:40pm 21.8 16.2 -10.7 10 12.5 SW 13 20 7 11 - - 0.0
14/03:30pm 21.9 16.3 -11.0 10 12.6 WSW 13 15 7 8 - - 0.0
14/03:20pm 22.2 17.1 -10.0 11 12.6 SW 11 19 6 10 - - 0.0
14/03:10pm 22.0 16.8 -10.7 10 12.6 WSW 11 17 6 9 - - 0.0
14/03:00pm 21.9 16.7 -10.5 10 12.5 WSW 11 15 6 8 - - 0.0
14/02:50pm 21.8 15.8 -10.8 10 12.5 WSW 15 20 8 11 - - 0.0
14/02:40pm 21.9 16.1 -8.7 12 12.2 W 15 20 8 11 - - 0.0
14/02:30pm 22.3 16.9 -8.5 12 12.4 WSW 13 17 7 9 - - 0.0
14/02:20pm 22.5 17.4 -9.4 11 12.7 WSW 11 19 6 10 - - 0.0
14/02:10pm 22.6 18.2 -10.6 10 12.9 SSW 7 11 4 6 - - 0.0
14/02:00pm 22.9 17.9 -8.5 11 12.7 SW 11 15 6 8 - - 0.0
14/01:50pm 22.8 17.7 -9.6 10 12.9 SW 11 19 6 10 - - 0.0
14/01:40pm 22.7 17.9 -10.4 10 12.9 SSW 9 15 5 8 - - 0.0
14/01:30pm 22.0 17.3 -9.2 11 12.4 SW 9 13 5 7 - - 0.0
14/01:20pm 22.2 17.1 -9.4 11 12.5 WSW 11 15 6 8 - - 0.0
14/01:10pm 21.8 17.1 -9.8 11 12.4 SW 9 19 5 10 - - 0.0
14/01:00pm 21.9 17.5 -9.6 11 12.4 S 7 13 4 7 - - 0.0
14/12:50pm 21.6 16.9 -9.6 11 12.2 SSW 9 13 5 7 - - 0.0
14/12:40pm 21.3 16.1 -10.2 11 12.2 SSW 11 15 6 8 - - 0.0
14/12:30pm 21.0 15.8 -10.3 11 12.0 S 11 15 6 8 - - 0.0
14/12:20pm 20.8 15.7 -9.9 12 11.9 S 11 20 6 11 - - 0.0
14/12:10pm 21.3 16.2 -9.4 12 12.0 SSW 11 17 6 9 - - 0.0
14/12:00pm 21.3 16.9 -10.7 11 12.2 S 7 11 4 6 - - 0.0
14/11:50am 20.9 16.3 -8.4 13 11.7 WSW 9 11 5 6 - - 0.0
14/11:40am 20.1 15.9 -8.2 14 11.2 SSW 7 9 4 5 - - 0.0
14/11:30am 18.9 14.4 -7.1 16 10.4 S 9 17 5 9 - - 0.0
14/11:20am 19.3 14.9 -6.2 17 10.4 S 9 15 5 8 - - 0.0
14/11:10am 19.7 15.6 -6.6 16 10.7 SSW 7 15 4 8 - - 0.0
14/11:00am 19.3 15.3 -6.1 17 10.4 SW 7 15 4 8 - - 0.0
14/10:50am 19.3 15.3 -6.0 17 10.4 WSW 7 11 4 6 - - 0.0
14/10:40am 19.0 15.2 -5.2 19 10.1 SW 6 11 3 6 - - 0.0
14/10:30am 18.4 14.5 -4.6 20 9.6 SSW 7 11 4 6 - - 0.0
14/10:20am 18.7 14.8 -4.3 20 9.7 SSW 7 13 4 7 - - 0.0
14/10:10am 18.4 14.7 -4.2 21 9.6 SSW 6 9 3 5 - - 0.0
14/10:00am 18.0 14.5 -2.8 24 9.0 WSW 6 7 3 4 - - 0.0
14/09:50am 17.9 14.1 -4.0 22 9.3 SW 7 11 4 6 - - 0.0
14/09:40am 17.1 13.6 -2.6 26 8.5 SW 6 7 3 4 - - 0.0
14/09:30am 16.3 12.6 -2.9 26 8.2 SW 7 11 4 6 - - 0.0
14/09:20am 15.7 12.1 -2.4 29 7.7 SW 7 11 4 6 - - 0.0
14/09:10am 14.7 10.8 -1.6 32 7.0 WSW 9 13 5 7 - - 0.0
14/09:00am 14.7 10.8 -1.4 33 7.0 SW 9 15 5 8 - - 0.0
14/08:50am 14.7 10.7 -1.9 32 7.1 SW 9 13 5 7 - - 0.0
14/08:40am 14.4 10.9 -1.4 33 6.8 SSW 7 11 4 6 - - 0.0
14/08:30am 13.7 10.2 -1.3 35 6.4 SSW 7 11 4 6 - - 0.0
14/08:20am 12.7 8.9 -1.1 38 5.9 SW 9 13 5 7 - - 0.0
14/08:10am 11.8 7.7 -0.4 43 5.3 WSW 11 17 6 9 - - 0.0
14/08:00am 11.7 7.6 0.0 44 5.1 SW 11 15 6 8 - - 0.0
14/07:50am 11.2 7.1 0.0 46 4.8 SW 11 17 6 9 - - 0.0
14/07:40am 10.7 5.9 0.0 47 4.6 WSW 15 20 8 11 - - 0.0
14/07:30am 10.2 5.0 0.0 49 4.4 WSW 17 20 9 11 - - 0.0
14/07:20am 9.9 4.1 -0.4 48 4.4 WSW 20 22 11 12 - - 0.0
14/07:10am 9.7 3.8 -0.5 49 4.3 WSW 20 26 11 14 - - 0.0
14/07:00am 9.3 3.0 -0.8 49 4.2 WSW 22 24 12 13 - - 0.0
14/06:50am 9.0 1.6 -1.0 49 4.1 WSW 28 30 15 16 - - 0.0
14/06:40am 8.7 1.6 -1.6 48 4.2 WSW 26 32 14 17 - - 0.0
14/06:30am 8.5 2.1 -1.5 49 4.1 WSW 22 26 12 14 - - 0.0
14/06:20am 8.5 1.6 -2.8 45 4.5 WSW 24 32 13 17 - - 0.0
14/06:10am 8.6 0.8 -3.6 42 4.7 WSW 28 33 15 18 - - 0.0
14/06:00am 8.5 1.5 -3.9 41 4.8 WSW 24 30 13 16 - - 0.0
14/05:50am 8.5 1.4 -4.7 39 5.0 WSW 24 30 13 16 - - 0.0
14/05:40am 8.5 1.0 -4.9 38 5.0 WSW 26 33 14 18 - - 0.0
14/05:30am 8.7 0.4 -5.0 37 5.1 WSW 30 35 16 19 - - 0.0
14/05:20am 8.8 0.1 -5.4 36 5.3 WSW 32 37 17 20 - - 0.0
14/05:10am 8.9 0.2 -5.4 36 5.3 WSW 32 35 17 19 - - 0.0
14/05:00am 8.9 0.9 -5.8 35 5.4 WSW 28 30 15 16 - - 0.0
14/04:50am 9.0 1.4 -5.9 34 5.5 WSW 26 32 14 17 - - 0.0
14/04:40am 9.2 1.5 -6.1 33 5.6 WSW 26 30 14 16 - - 0.0
14/04:30am 9.2 1.2 -6.2 33 5.6 WSW 28 32 15 17 - - 0.0
14/04:20am 9.3 1.2 -6.4 32 5.7 WSW 28 32 15 17 - - 0.0
14/04:10am 9.4 1.3 -6.7 31 5.8 WSW 28 32 15 17 - - 0.0
14/04:00am 9.4 1.3 -6.9 31 5.9 WSW 28 33 15 18 - - 0.0
14/03:50am 9.3 2.0 -6.4 32 5.7 WSW 24 30 13 16 - - 0.0
14/03:40am 9.5 2.2 -6.4 32 5.8 WSW 24 26 13 14 - - 0.0
14/03:30am 9.7 2.4 -6.7 31 6.0 WSW 24 28 13 15 - - 0.0
14/03:20am 10.0 1.9 -6.7 30 6.1 WSW 28 32 15 17 - - 0.0
14/03:10am 10.2 2.8 -7.6 28 6.4 SW 24 30 13 16 - - 0.0
14/03:00am 10.3 3.5 -8.7 25 6.7 SW 20 24 11 13 - - 0.0
14/02:50am 10.6 3.0 -9.9 22 7.0 WSW 24 28 13 15 - - 0.0
14/02:40am 10.7 3.1 -9.7 23 7.0 WSW 24 30 13 16 - - 0.0
14/02:30am 10.7 2.8 -9.0 24 6.9 WSW 26 32 14 17 - - 0.0
14/02:20am 10.9 1.6 -9.1 23 7.0 WSW 33 39 18 21 - - 0.0
14/02:10am 11.0 1.8 -8.7 24 7.0 WSW 33 39 18 21 - - 0.0
14/02:00am 11.1 2.2 -7.3 27 6.7 WSW 32 35 17 19 - - 0.0
14/01:50am 11.2 1.7 -7.8 25 6.9 WSW 35 39 19 21 - - 0.0
14/01:40am 11.1 2.9 -8.4 24 7.0 WSW 28 33 15 18 - - 0.0
14/01:30am 11.2 3.1 -6.4 28 6.6 WSW 28 32 15 17 - - 0.0
14/01:20am 11.1 3.5 -5.9 30 6.4 WSW 26 32 14 17 - - 0.0
14/01:10am 11.2 3.6 -5.1 31 6.3 WSW 26 30 14 16 - - 0.0
14/01:00am 11.2 3.7 -4.8 32 6.2 WSW 26 30 14 16 - - 0.0
14/12:50am 11.3 3.8 -5.0 31 6.3 WSW 26 32 14 17 - - 0.0
14/12:40am 11.4 3.8 -5.2 31 6.4 WSW 26 32 14 17 - - 0.0
14/12:30am 11.5 4.3 -5.2 30 6.4 WSW 24 26 13 14 - - 0.0
14/12:20am 11.7 4.9 -5.5 29 6.6 WSW 22 26 12 14 - - 0.0
14/12:10am 11.8 4.6 -5.7 29 6.7 WSW 24 26 13 14 - - 0.0
14/12:00am 12.0 4.7 -5.8 28 6.8 WSW 24 28 13 15 - - 0.0
 
Date/Time
EST
Temp
°C
App
Temp
°C
Dew
Point
°C
Rel
Hum
%
Delta-T
°C
Wind Press
QNH
hPa
Press
MSL
hPa
Rain since
9am
mm
Dir  Spd
km/h
Gust
km/h
Spd
kts
Gust
kts
13/11:50pm 12.2 4.9 -6.0 27 6.9 WSW 24 28 13 15 - - 0.0
13/11:40pm 12.4 4.3 -6.3 26 7.1 WSW 28 32 15 17 - - 0.0
13/11:30pm 12.6 4.9 -6.5 26 7.2 WSW 26 32 14 17 - - 0.0
13/11:20pm 12.7 5.7 -6.9 25 7.4 WSW 22 28 12 15 - - 0.0
13/11:10pm 12.8 6.2 -7.2 24 7.5 WSW 20 28 11 15 - - 0.0
13/11:00pm 12.9 6.5 -7.2 24 7.5 WSW 19 20 10 11 - - 0.0
13/10:50pm 12.9 6.8 -7.4 23 7.6 WSW 17 24 9 13 - - 0.0
13/10:40pm 12.9 6.8 -7.3 24 7.5 WSW 17 20 9 11 - - 0.0
13/10:30pm 13.0 6.6 -7.3 23 7.6 W 19 22 10 12 - - 0.0
13/10:20pm 13.0 6.9 -7.3 23 7.6 WSW 17 20 9 11 - - 0.0
13/10:10pm 13.0 6.9 -7.3 23 7.6 W 17 20 9 11 - - 0.0
13/10:00pm 13.1 8.2 -7.3 23 7.6 WSW 11 15 6 8 - - 0.0
13/09:50pm 13.3 8.0 -7.4 23 7.8 W 13 17 7 9 - - 0.0
13/09:40pm 13.5 7.8 -7.5 22 7.9 WSW 15 19 8 10 - - 0.0
13/09:30pm 13.6 7.1 -7.8 22 8.0 WSW 19 20 10 11 - - 0.0
13/09:20pm 13.7 7.0 -8.3 21 8.1 WSW 20 24 11 13 - - 0.0
13/09:10pm 13.9 7.3 -8.9 19 8.3 WSW 19 28 10 15 - - 0.0
13/09:00pm 14.0 6.8 -9.0 19 8.4 WSW 22 26 12 14 - - 0.0
13/08:50pm 13.9 7.1 -8.7 20 8.3 W 20 24 11 13 - - 0.0
13/08:40pm 14.0 7.3 -7.9 21 8.2 W 20 22 11 12 - - 0.0
13/08:30pm 14.2 6.8 -7.8 21 8.3 WSW 24 32 13 17 - - 0.0
13/08:20pm 14.3 7.3 -7.7 21 8.3 W 22 28 12 15 - - 0.0
13/08:00pm 14.3 7.7 -7.3 22 8.2 WSW 20 24 11 13 - - 0.0
13/07:50pm 14.1 7.4 -7.9 21 8.2 WSW 20 22 11 12 - - 0.0
13/07:40pm 14.0 7.4 -9.1 19 8.4 WSW 19 19 10 10 - - 0.0
13/07:30pm 14.1 7.4 -10.0 18 8.6 WSW 19 22 10 12 - - 0.0
13/07:20pm 14.3 7.6 -10.9 16 8.8 WSW 19 22 10 12 - - 0.0
13/07:10pm 14.5 7.7 -11.5 15 9.0 WSW 19 24 10 13 - - 0.0
13/07:00pm 14.5 7.7 -11.8 15 9.1 WSW 19 22 10 12 - - 0.0
13/06:50pm 14.8 8.4 -11.8 15 9.2 WSW 17 22 9 12 - - 0.0
13/06:40pm 15.0 8.2 -12.5 14 9.4 WSW 19 24 10 13 - - 0.0
13/06:30pm 15.3 8.9 -11.2 15 9.4 SW 17 20 9 11 - - 0.0
13/06:20pm 15.7 10.1 -10.4 15 9.4 SW 13 19 7 10 - - 0.0
13/06:10pm 16.1 9.7 -11.4 14 9.8 WSW 17 19 9 10 - - 0.0
13/06:00pm 16.5 9.8 -11.1 14 9.9 WSW 19 20 10 11 - - 0.0
13/05:50pm 17.0 10.2 -9.4 15 9.9 WSW 20 26 11 14 - - 0.0
13/05:40pm 17.4 10.6 -9.3 15 10.1 WSW 20 24 11 13 - - 0.0
13/05:30pm 18.0 11.4 -9.0 15 10.3 WSW 19 24 10 13 - - 0.0
13/05:20pm 18.6 12.3 -9.8 13 10.7 WSW 17 22 9 12 - - 0.0
13/05:10pm 19.0 12.8 -9.1 14 10.8 W 17 20 9 11 - - 0.0
13/05:00pm 19.3 13.0 -10.1 13 11.1 W 17 24 9 13 - - 0.0
13/04:50pm 19.7 13.7 -12.0 11 11.6 NW 15 24 8 13 - - 0.0
13/04:40pm 19.9 13.8 -12.6 10 11.8 NNW 15 24 8 13 - - 0.0
13/04:30pm 20.5 14.8 -12.4 10 12.1 NW 13 17 7 9 - - 0.0
13/04:20pm 20.9 14.8 -13.0 9 12.3 W 15 20 8 11 - - 0.0
13/04:10pm 21.1 14.3 -12.5 9 12.4 W 19 22 10 12 - - 0.0
13/04:00pm 21.0 14.5 -12.7 9 12.4 W 17 22 9 12 - - 0.0
13/03:50pm 20.9 14.5 -12.4 9 12.3 W 17 20 9 11 - - 0.0
13/03:40pm 21.0 15.3 -12.8 9 12.4 WNW 13 20 7 11 - - 0.0
13/03:30pm 21.3 14.4 -13.3 9 12.6 W 19 26 10 14 - - 0.0
13/03:20pm 21.3 15.9 -14.2 8 12.7 W 11 17 6 9 - - 0.0
13/03:00pm 21.7 16.5 -10.7 10 12.4 NW 11 19 6 10 - - 0.0
13/02:50pm 21.5 16.6 -6.7 14 11.7 NW 11 17 6 9 - - 0.0
13/02:40pm 20.7 15.9 -5.8 16 11.1 NNW 11 17 6 9 - - 0.0
13/02:30pm 20.7 16.0 -5.5 16 11.0 N 11 17 6 9 - - 0.0
13/02:20pm 20.9 15.8 -5.4 16 11.1 NNW 13 20 7 11 - - 0.0
13/02:10pm 20.9 16.1 -5.9 16 11.2 N 11 15 6 8 - - 0.0
13/02:00pm 21.1 17.0 -6.5 15 11.4 NNW 7 11 4 6 - - 0.0
13/01:50pm 21.2 17.2 -5.5 16 11.3 NNW 7 11 4 6 - - 0.0
13/01:40pm 20.6 16.6 -5.6 16 11.0 NW 7 11 4 6 - - 0.0
13/01:30pm 20.5 15.8 -5.3 17 10.9 N 11 15 6 8 - - 0.0
13/01:20pm 21.0 17.1 -6.6 15 11.4 W 6 9 3 5 - - 0.0
13/01:10pm 20.3 16.4 -4.5 18 10.6 SSW 7 11 4 6 - - 0.0
13/01:00pm 20.1 16.6 -2.8 21 10.1 WNW 6 9 3 5 - - 0.0
13/12:50pm 18.9 15.4 -1.2 25 9.1 NNW 7 11 4 6 - - 0.0
13/12:40pm 18.9 15.0 -1.3 25 9.1 NNW 9 17 5 9 - - 0.0
13/12:30pm 18.6 15.2 -0.8 27 8.8 NNW 7 11 4 6 - - 0.0
13/12:20pm 18.5 15.1 -0.6 27 8.7 N 7 13 4 7 - - 0.0
13/12:10pm 18.7 15.6 0.4 29 8.5 NNW 6 11 3 6 - - 0.0
13/12:00pm 18.2 15.1 0.4 30 8.2 WNW 6 9 3 5 - - 0.0
13/11:50am 17.5 14.5 1.0 33 7.7 NE 6 9 3 5 - - 0.0
13/11:40am 17.4 14.4 1.0 33 7.6 NE 6 9 3 5 - - 0.0
13/11:30am 17.3 14.3 0.8 33 7.6 NW 6 7 3 4 - - 0.0
13/11:20am 16.7 13.7 0.5 33 7.4 ENE 6 9 3 5 - - 0.0
13/11:10am 16.7 13.5 0.8 34 7.3 NNE 7 13 4 7 - - 0.0
13/11:00am 16.0 12.8 0.8 35 7.0 E 7 13 4 7 - - 0.0

Other formats

Comma delimited format used in spreadsheet applications
http://www.bom.gov.au/fwo/IDN60801/IDN60801.99999.axf

JavaScript Object Notation format (JSON) in row-major order
http://www.bom.gov.au/fwo/IDN60801/IDN60801.99999.json

Data quality

Most of these data are generated automatically and are frequently updated. Quality checks on data are not normally performed. It is possible for incorrect values to appear. Refer to information at About Latest Weather Observations and please check the disclaimer before using these data.